Time;durP1;ratioP1;P1;durP2;ratioP2;P2;SDS_P1;SDS_P2;PMS_P1;PMS_P2;Temp;Humidity;BMP_temperature;BMP_pressure;BME280_temperature;BME280_humidity;BME280_pressure;Samples;Min_cycle;Max_cycle;Signal;HPM_P1;HPM_P2
2023/05/13 00:02:23;;;;;;;3.97;2.23;;;;;;;-143.84;47.46;45142.38;4970027;28;20473;-66
2023/05/13 00:04:52;;;;;;;6.30;2.20;;;;;;;-143.84;47.03;45140.47;4969910;28;20445;-66
2023/05/13 00:07:19;;;;;;;5.53;2.60;;;;;;;-143.84;46.50;45111.91;4969969;28;20446;-66
2023/05/13 00:09:46;;;;;;;2.40;1.97;;;;;;;-143.84;46.65;45150.00;4970411;28;20438;-65
2023/05/13 00:12:13;;;;;;;6.87;2.07;;;;;;;-143.84;46.25;45130.94;4970464;28;20496;-66
2023/05/13 00:14:40;;;;;;;2.50;2.30;;;;;;;-143.84;46.55;45130.94;4969057;28;20453;-66
2023/05/13 00:17:07;;;;;;;1.97;1.87;;;;;;;-143.84;46.77;45148.09;4969512;28;20441;-66
2023/05/13 00:19:34;;;;;;;2.30;2.10;;;;;;;-143.84;46.32;45144.28;4969801;28;20449;-67
2023/05/13 00:22:03;;;;;;;3.87;2.43;;;;;;;-143.84;46.32;45111.91;4969592;28;20442;-66
2023/05/13 00:24:30;;;;;;;3.60;2.10;;;;;;;-143.84;46.24;45134.75;4970140;28;20442;-66
2023/05/13 00:26:57;;;;;;;5.20;2.40;;;;;;;-143.84;46.41;45132.84;4970176;28;20445;-67
2023/05/13 00:29:24;;;;;;;5.63;2.13;;;;;;;-143.84;46.43;45144.28;4969734;28;20500;-67
2023/05/13 00:31:52;;;;;;;2.83;2.47;;;;;;;-143.84;46.18;45129.03;4969639;28;20512;-66
2023/05/13 00:34:19;;;;;;;2.70;1.80;;;;;;;-143.84;46.50;45119.53;4969677;28;20605;-67
2023/05/13 00:36:46;;;;;;;7.13;2.80;;;;;;;-143.84;46.72;45106.19;4969783;28;20499;-67
2023/05/13 00:39:14;;;;;;;8.43;2.30;;;;;;;-143.84;46.26;45134.75;4972401;28;20442;-67
2023/05/13 00:41:41;;;;;;;3.23;2.50;;;;;;;-143.84;46.42;45121.44;4972332;28;20508;-67
2023/05/13 00:44:08;;;;;;;4.57;1.83;;;;;;;-143.84;46.45;45123.34;4972526;28;20492;-67
2023/05/13 00:46:35;;;;;;;2.13;1.87;;;;;;;-143.84;46.09;45125.22;4972860;28;20928;-67
2023/05/13 00:49:04;;;;;;;2.17;2.07;;;;;;;-143.84;46.01;45115.72;4972835;28;20453;-67
2023/05/13 00:51:32;;;;;;;3.33;2.17;;;;;;;-143.84;45.95;45129.03;4972891;28;20434;-67
2023/05/13 00:53:59;;;;;;;5.00;2.70;;;;;;;-143.84;46.33;45138.56;4972911;28;20852;-67
2023/05/13 00:56:28;;;;;;;2.40;1.90;;;;;;;-143.84;45.69;45119.53;4972565;28;20489;-67
2023/05/13 00:58:55;;;;;;;4.83;1.87;;;;;;;-143.84;45.55;45117.63;4972508;28;20454;-67
2023/05/13 01:01:31;;;;;;;2.77;2.00;;;;;;;-143.84;45.71;45136.66;4972520;28;20504;-67
2023/05/13 01:04:09;;;;;;;2.67;1.93;;;;;;;-143.84;45.74;45140.47;4972342;28;20489;-67
2023/05/13 01:06:45;;;;;;;2.50;2.30;;;;;;;-143.84;45.18;45121.44;4971840;28;20507;-67
2023/05/13 01:09:20;;;;;;;5.33;1.80;;;;;;;-143.84;44.84;45119.53;4972503;28;20883;-67
2023/05/13 01:11:53;;;;;;;1.80;1.70;;;;;;;-143.84;44.81;45132.84;4972402;28;20476;-67
2023/05/13 01:14:25;;;;;;;3.20;2.20;;;;;;;-143.84;44.85;45140.47;4972637;28;20450;-67
2023/05/13 01:16:58;;;;;;;3.17;2.47;;;;;;;-143.84;44.89;45146.19;4972455;28;20434;-67
2023/05/13 01:19:39;;;;;;;4.40;2.03;;;;;;;-143.84;45.39;45125.22;4972338;28;20449;-67
2023/05/13 01:22:07;;;;;;;3.20;2.30;;;;;;;-143.84;45.57;45132.84;4971369;28;20450;-68
2023/05/13 01:24:37;;;;;;;2.80;2.37;;;;;;;-143.84;45.56;45146.19;4971361;28;20489;-68
2023/05/13 01:27:05;;;;;;;4.13;2.20;;;;;;;-143.84;45.92;45125.22;4971676;28;20454;-68
2023/05/13 01:29:32;;;;;;;2.70;1.97;;;;;;;-143.84;46.12;45134.75;4971020;28;20493;-68
2023/05/13 01:32:01;;;;;;;4.30;2.40;;;;;;;-143.84;46.38;45138.56;4971218;28;20446;-67
2023/05/13 01:34:29;;;;;;;2.10;2.00;;;;;;;-143.84;46.00;45136.66;4971463;28;20516;-67
2023/05/13 01:36:57;;;;;;;2.80;2.60;;;;;;;-143.84;46.40;45129.03;4972383;28;20512;-67
2023/05/13 01:39:26;;;;;;;7.20;2.70;;;;;;;-143.84;46.93;45127.13;4972151;28;20504;-67
2023/05/13 01:41:53;;;;;;;3.47;2.80;;;;;;;-143.84;47.31;45144.28;4971878;28;20948;-67
2023/05/13 01:44:21;;;;;;;6.63;2.93;;;;;;;-143.84;47.64;45125.22;4971822;28;20536;-67
2023/05/13 01:46:49;;;;;;;2.80;2.20;;;;;;;-143.84;47.99;45106.19;4972004;28;20520;-66
2023/05/13 01:49:16;;;;;;;4.50;2.27;;;;;;;-143.84;48.15;45151.91;4971173;28;20473;-67
2023/05/13 01:51:43;;;;;;;2.40;2.20;;;;;;;-143.84;48.22;45153.81;4971772;28;20445;-66
2023/05/13 01:54:10;;;;;;;2.70;2.50;;;;;;;-143.84;47.80;45170.94;4971547;28;20548;-66
2023/05/13 01:56:39;;;;;;;5.63;2.40;;;;;;;-143.84;47.85;45144.28;4970803;28;20936;-67
2023/05/13 01:59:06;;;;;;;2.40;1.93;;;;;;;-143.84;47.95;45151.91;4971266;28;20441;-66
2023/05/13 02:01:33;;;;;;;2.30;2.10;;;;;;;-143.84;47.84;45134.75;4971477;28;20500;-66
2023/05/13 02:04:00;;;;;;;5.93;2.20;;;;;;;-143.84;47.17;45134.75;4971212;28;20832;-66
2023/05/13 02:06:27;;;;;;;2.87;2.47;;;;;;;-143.84;47.47;45132.84;4971611;28;20939;-66
2023/05/13 02:08:54;;;;;;;2.80;2.53;;;;;;;-143.84;47.15;45144.28;4971436;28;20994;-65
2023/05/13 02:11:21;;;;;;;2.30;2.13;;;;;;;-143.84;47.21;45144.28;4971509;28;20438;-65
2023/05/13 02:13:50;;;;;;;2.50;2.30;;;;;;;-143.84;47.17;45115.72;4971253;28;20501;-66
2023/05/13 02:16:18;;;;;;;4.97;2.13;;;;;;;-143.84;47.17;45140.47;4971279;28;20853;-65
2023/05/13 02:18:45;;;;;;;2.67;2.33;;;;;;;-143.84;46.60;45129.03;4971124;28;20445;-65
2023/05/13 02:21:12;;;;;;;4.37;2.50;;;;;;;-143.84;45.91;45138.56;4970625;28;20928;-65
2023/05/13 02:23:39;;;;;;;2.43;2.20;;;;;;;-143.84;45.72;45142.38;4970392;28;20489;-65
2023/05/13 02:26:06;;;;;;;3.83;2.40;;;;;;;-143.84;45.41;45142.38;4970748;28;20445;-66
2023/05/13 02:28:33;;;;;;;3.77;2.20;;;;;;;-143.84;45.10;45132.84;4971036;28;20445;-66
2023/05/13 02:31:02;;;;;;;3.00;2.80;;;;;;;-143.84;45.37;45121.44;4970970;28;20928;-66
2023/05/13 02:33:29;;;;;;;2.23;1.97;;;;;;;-143.84;45.24;45125.22;4970896;28;20964;-66
2023/05/13 02:35:56;;;;;;;5.23;2.63;;;;;;;-143.84;45.54;45125.22;4971060;28;20434;-66
2023/05/13 02:38:23;;;;;;;2.77;2.50;;;;;;;-143.84;45.10;45138.56;4970886;28;20512;-66
2023/05/13 02:40:50;;;;;;;2.27;2.07;;;;;;;-143.84;45.71;45130.94;4970893;28;20441;-66
2023/05/13 02:43:18;;;;;;;2.30;2.10;;;;;;;-143.84;45.83;45150.00;4970678;28;20476;-66
2023/05/13 02:45:46;;;;;;;5.53;2.37;;;;;;;-143.84;46.16;45125.22;4970898;28;20441;-66
2023/05/13 02:48:15;;;;;;;2.80;2.20;;;;;;;-143.84;46.24;45129.03;4970489;28;20443;-67
2023/05/13 02:50:42;;;;;;;3.83;2.43;;;;;;;-143.84;46.32;45123.34;4970212;28;20442;-66
2023/05/13 02:53:09;;;;;;;5.50;2.73;;;;;;;-143.84;46.23;45129.03;4970564;28;20473;-66
2023/05/13 02:55:36;;;;;;;2.53;2.33;;;;;;;-143.84;46.35;45119.53;4970596;28;20527;-66
2023/05/13 02:58:03;;;;;;;5.87;2.43;;;;;;;-143.84;46.87;45117.63;4970671;28;20450;-66
2023/05/13 03:00:30;;;;;;;2.60;2.40;;;;;;;-143.84;46.83;45129.03;4970650;28;20529;-66
2023/05/13 03:02:57;;;;;;;9.13;2.80;;;;;;;-143.84;46.93;45123.34;4970974;28;20857;-66
2023/05/13 03:05:26;;;;;;;2.67;2.30;;;;;;;-143.84;47.20;45151.91;4971439;28;20489;-67
2023/05/13 03:07:53;;;;;;;18.33;2.67;;;;;;;-143.84;47.15;45146.19;4971259;28;20500;-66
2023/05/13 03:10:20;;;;;;;6.57;2.70;;;;;;;-143.84;47.00;45119.53;4971515;28;20497;-66
2023/05/13 03:12:47;;;;;;;4.23;2.50;;;;;;;-143.84;47.33;45117.63;4969878;28;20485;-67
2023/05/13 03:15:15;;;;;;;5.33;2.63;;;;;;;-143.84;47.33;45144.28;4970611;28;20512;-66
2023/05/13 03:17:43;;;;;;;3.47;2.57;;;;;;;-143.84;46.82;45150.00;4970694;28;20434;-67
2023/05/13 03:20:11;;;;;;;5.87;2.23;;;;;;;-143.84;46.05;45132.84;4971123;28;20517;-66
2023/05/13 03:22:40;;;;;;;7.83;2.50;;;;;;;-143.84;45.58;45136.66;4971101;28;20508;-67
2023/05/13 03:25:08;;;;;;;2.20;2.00;;;;;;;-143.84;45.04;45136.66;4970971;28;20485;-66
2023/05/13 03:27:35;;;;;;;6.23;2.50;;;;;;;-143.84;44.58;45140.47;4971080;28;20496;-67
2023/05/13 03:30:02;;;;;;;5.67;2.40;;;;;;;-143.84;44.31;45132.84;4969899;28;20442;-67
2023/05/13 03:32:30;;;;;;;6.33;2.40;;;;;;;-143.84;44.39;45125.22;4970313;28;20524;-67
2023/05/13 03:34:59;;;;;;;9.63;2.27;;;;;;;-143.84;43.45;45129.03;4970222;28;20943;-67
2023/05/13 03:37:26;;;;;;;4.37;3.80;;;;;;;-143.84;43.08;45142.38;4969536;28;20975;-67
2023/05/13 03:39:55;;;;;;;7.90;2.97;;;;;;;-143.84;42.14;45125.22;4969379;28;20500;-67
2023/05/13 03:42:23;;;;;;;2.40;2.00;;;;;;;-143.84;41.31;45081.44;4969805;28;20442;-67
2023/05/13 03:44:50;;;;;;;8.40;2.77;;;;;;;-143.84;40.16;45100.47;4970090;28;20481;-67
2023/05/13 03:47:17;;;;;;;4.10;2.23;;;;;;;-143.84;39.66;45117.63;4969820;28;20524;-67
2023/05/13 03:49:46;;;;;;;2.17;2.00;;;;;;;-143.84;38.58;45083.34;4969773;28;20500;-67
2023/05/13 03:52:15;;;;;;;8.83;2.50;;;;;;;-143.84;38.09;45075.72;4969671;28;20450;-67
2023/05/13 03:54:42;;;;;;;2.50;2.13;;;;;;;-143.84;37.62;45075.72;4969871;28;20900;-68
2023/05/13 03:57:11;;;;;;;6.70;2.40;;;;;;;-143.84;36.56;45073.81;4969967;28;20442;-68
2023/05/13 03:59:38;;;;;;;3.73;1.90;;;;;;;-143.84;36.06;45054.78;4969912;28;20477;-68
2023/05/13 04:02:05;;;;;;;3.00;2.00;;;;;;;-143.84;35.68;45081.44;4970240;28;20866;-63
2023/05/13 04:04:32;;;;;;;3.60;2.10;;;;;;;-143.84;35.19;45073.81;4969186;28;20999;-62
2023/05/13 04:07:00;;;;;;;2.33;2.13;;;;;;;-143.84;34.37;45089.06;4971633;28;20480;-62
2023/05/13 04:09:27;;;;;;;2.27;2.07;;;;;;;-143.84;33.86;45071.91;4988931;28;20942;-62
2023/05/13 04:11:54;;;;;;;3.87;1.90;;;;;;;-143.84;34.40;45077.63;4990884;28;20440;-62
2023/05/13 04:14:22;;;;;;;2.30;2.10;;;;;;;-143.84;33.95;45070.00;4993060;28;20515;-62
2023/05/13 04:16:49;;;;;;;7.53;2.40;;;;;;;-143.84;33.17;45045.25;4992843;28;20495;-62
2023/05/13 04:19:16;;;;;;;11.10;2.50;;;;;;;-143.84;33.60;45039.53;4992928;28;20542;-62
2023/05/13 04:21:44;;;;;;;2.33;2.10;;;;;;;-143.84;33.61;45070.00;4992742;28;20505;-62
2023/05/13 04:24:11;;;;;;;9.53;1.93;;;;;;;-143.84;33.14;45028.13;4992945;28;20563;-62
2023/05/13 04:26:38;;;;;;;6.30;2.10;;;;;;;-143.84;33.14;45033.84;4992814;28;20448;-62
2023/05/13 04:29:05;;;;;;;5.37;2.13;;;;;;;-143.84;33.00;45043.34;4992678;28;20441;-62
2023/05/13 04:31:34;;;;;;;2.43;2.23;;;;;;;-143.84;32.44;45037.66;4992250;28;20893;-61
2023/05/13 04:34:01;;;;;;;8.67;2.10;;;;;;;-143.84;32.55;45047.16;4991883;28;20827;-62
2023/05/13 04:36:28;;;;;;;4.27;2.13;;;;;;;-143.84;31.97;45045.25;4992805;28;20436;-62
2023/05/13 04:38:55;;;;;;;8.13;2.50;;;;;;;-143.84;31.53;45035.75;4992607;28;20824;-62
2023/05/13 04:41:22;;;;;;;5.63;2.67;;;;;;;-143.84;31.18;45043.34;4992617;28;20437;-60
2023/05/13 04:43:49;;;;;;;2.70;2.50;;;;;;;-143.84;31.38;45043.34;4992396;28;20477;-60
2023/05/13 04:46:17;;;;;;;3.83;2.73;;;;;;;-143.84;30.12;45010.97;4992644;28;20792;-61
2023/05/13 04:48:47;;;;;;;10.43;2.77;;;;;;;-143.84;31.06;45047.16;4992286;28;20503;-61
2023/05/13 04:51:14;;;;;;;5.67;3.00;;;;;;;-143.84;30.15;45028.13;4992246;28;20956;-61
2023/05/13 04:53:42;;;;;;;6.23;2.90;;;;;;;-143.84;30.04;45060.50;4992040;28;20927;-61
2023/05/13 04:56:09;;;;;;;5.73;2.30;;;;;;;-143.84;30.31;45033.84;4992315;28;21003;-61
2023/05/13 04:58:36;;;;;;;9.70;3.30;;;;;;;-143.84;29.82;45052.88;4992438;28;20453;-61
2023/05/13 05:01:03;;;;;;;4.47;2.60;;;;;;;-143.84;29.73;45045.25;4991858;28;20821;-61
2023/05/13 05:03:30;;;;;;;3.47;2.80;;;;;;;-143.84;29.96;45037.66;4991551;28;20446;-61
2023/05/13 05:05:59;;;;;;;6.07;2.97;;;;;;;-143.84;29.87;45022.41;4991614;28;20957;-62
2023/05/13 05:08:27;;;;;;;4.80;3.27;;;;;;;-143.84;29.80;45035.75;4991928;28;20964;-63
2023/05/13 05:10:54;;;;;;;5.70;3.00;;;;;;;-143.84;29.53;45035.75;4992188;28;20447;-63
2023/05/13 05:13:21;;;;;;;6.90;2.27;;;;;;;-143.84;29.99;45018.59;4991830;28;20454;-62
2023/05/13 05:15:49;;;;;;;6.30;2.60;;;;;;;-143.84;30.20;45026.22;4991886;28;20473;-63
2023/05/13 05:18:16;;;;;;;10.17;2.40;;;;;;;-143.84;29.43;45030.03;4991913;28;20446;-62
2023/05/13 05:20:43;;;;;;;5.03;2.10;;;;;;;-143.84;28.94;45024.31;4991774;28;20455;-62
2023/05/13 05:23:11;;;;;;;14.33;2.40;;;;;;;-143.84;29.45;45020.50;4991092;28;20879;-62
2023/05/13 05:25:39;;;;;;;24.63;2.43;;;;;;;-143.84;29.42;45033.84;4991804;28;20549;-62
2023/05/13 05:28:06;;;;;;;6.40;2.67;;;;;;;-143.84;29.15;45005.28;4992087;28;20508;-63
2023/05/13 05:30:38;;;;;;;3.60;2.30;;;;;;;-143.84;29.78;45014.78;4991355;28;20448;-63
2023/05/13 05:33:05;;;;;;;6.00;2.90;;;;;;;-143.84;29.46;45031.94;4988084;28;20438;-63
2023/05/13 05:35:35;;;;;;;3.00;2.53;;;;;;;-143.84;28.19;45009.09;4990690;28;20446;-63
2023/05/13 05:38:04;;;;;;;7.30;3.23;;;;;;;-143.84;28.50;45031.94;4991217;28;20443;-63
2023/05/13 05:40:32;;;;;;;4.97;3.00;;;;;;;-143.84;28.73;45024.31;4988925;28;20802;-63
2023/05/13 05:42:59;;;;;;;9.30;2.60;;;;;;;-143.84;28.66;45022.41;4991757;28;20448;-63
2023/05/13 05:45:26;;;;;;;5.57;3.13;;;;;;;-143.84;28.36;45007.19;4991138;28;21377;-63
2023/05/13 05:47:54;;;;;;;9.30;2.40;;;;;;;-143.84;26.95;45012.88;4991393;28;20498;-67
2023/05/13 05:50:21;;;;;;;3.57;2.30;;;;;;;-143.84;27.28;45005.28;4990584;28;20449;-65
2023/05/13 05:52:48;;;;;;;7.73;2.73;;;;;;;-143.84;27.42;44990.03;4989785;28;20507;-65
2023/05/13 05:55:15;;;;;;;4.37;2.30;;;;;;;-143.84;27.27;45028.13;4987201;28;20472;-65
2023/05/13 05:57:44;;;;;;;7.23;2.40;;;;;;;-143.84;26.79;45033.84;4989689;28;20448;-64
2023/05/13 06:00:12;;;;;;;3.33;3.00;;;;;;;-143.84;26.34;45009.09;4989613;28;20446;-65
2023/05/13 06:02:40;;;;;;;3.77;3.33;;;;;;;-143.84;26.65;45010.97;4989847;28;20448;-65
2023/05/13 06:05:08;;;;;;;2.23;1.90;;;;;;;-143.84;27.41;45001.47;4989410;28;20538;-65
2023/05/13 06:07:35;;;;;;;3.40;2.40;;;;;;;-143.84;27.45;45016.69;4987244;28;20554;-63
2023/05/13 06:10:03;;;;;;;18.50;2.40;;;;;;;-143.84;26.47;45007.19;4991125;28;20860;-64
2023/05/13 06:12:30;;;;;;;5.00;2.53;;;;;;;-143.84;27.04;44995.75;4990409;28;20975;-63
2023/05/13 06:14:58;;;;;;;4.87;2.73;;;;;;;-143.84;26.61;44995.75;4987888;28;20449;-63
2023/05/13 06:17:26;;;;;;;8.67;2.40;;;;;;;-143.84;25.86;45014.78;4990168;28;20456;-62
2023/05/13 06:19:53;;;;;;;15.53;3.30;;;;;;;-143.84;26.68;45024.31;4989508;28;20445;-62
2023/05/13 06:22:20;;;;;;;7.20;2.83;;;;;;;-143.84;26.42;45016.69;4990159;28;20888;-62
2023/05/13 06:24:47;;;;;;;2.27;2.10;;;;;;;-143.84;26.42;45026.22;4990422;28;20534;-62
2023/05/13 06:27:14;;;;;;;3.63;2.50;;;;;;;-143.84;26.35;45018.59;4990547;28;20447;-62
2023/05/13 06:29:41;;;;;;;10.20;2.17;;;;;;;-143.84;26.18;45026.22;4990753;28;20490;-62
2023/05/13 06:32:10;;;;;;;3.43;2.20;;;;;;;-143.84;25.54;45020.50;4990352;28;20448;-63
2023/05/13 06:34:38;;;;;;;6.33;2.87;;;;;;;-143.84;26.28;44991.94;4989144;28;20492;-63
2023/05/13 06:37:06;;;;;;;4.60;2.40;;;;;;;-143.84;26.02;45003.38;4989597;28;20942;-63
2023/05/13 06:39:33;;;;;;;3.50;2.50;;;;;;;-143.84;25.60;44986.22;4989786;28;20445;-63
2023/05/13 06:42:00;;;;;;;3.67;2.70;;;;;;;-143.84;25.91;45024.31;4989825;28;20875;-63
2023/05/13 06:44:27;;;;;;;14.00;2.60;;;;;;;-143.84;25.87;45012.88;4988912;28;20492;-62
2023/05/13 06:46:54;;;;;;;9.37;3.00;;;;;;;-143.84;26.79;44995.75;4989596;28;20445;-63
2023/05/13 06:49:24;;;;;;;9.50;2.23;;;;;;;-143.84;26.92;44997.66;4988682;28;20504;-63
2023/05/13 06:51:51;;;;;;;3.70;2.33;;;;;;;-143.84;26.03;44980.53;4987393;28;20461;-62
2023/05/13 06:54:18;;;;;;;3.33;2.90;;;;;;;-143.84;26.82;44991.94;4988260;28;20484;-62
2023/05/13 06:56:45;;;;;;;2.97;2.60;;;;;;;-143.84;26.62;45009.09;4974254;28;21037;-62
2023/05/13 06:59:13;;;;;;;3.57;3.00;;;;;;;-143.84;27.23;45026.22;4980622;28;20532;-62
2023/05/13 07:01:41;;;;;;;4.03;2.57;;;;;;;-143.84;26.67;44978.63;4980370;28;20523;-62
2023/05/13 07:04:08;;;;;;;6.67;2.60;;;;;;;-143.84;26.68;45010.97;4979440;28;21119;-62
2023/05/13 07:06:36;;;;;;;6.60;2.50;;;;;;;-143.84;26.42;44974.81;4978424;28;20502;-62
2023/05/13 07:09:04;;;;;;;3.20;2.70;;;;;;;-143.84;25.67;45005.28;4979921;28;20469;-62
2023/05/13 07:11:31;;;;;;;3.90;2.60;;;;;;;-143.84;27.00;44997.66;4979738;28;20445;-61
2023/05/13 07:13:58;;;;;;;3.70;2.80;;;;;;;-143.84;27.56;45014.78;4983214;28;20974;-62
2023/05/13 07:16:25;;;;;;;4.43;2.20;;;;;;;-143.84;26.00;44972.91;4989486;28;20449;-62
2023/05/13 07:18:53;;;;;;;6.00;2.50;;;;;;;-143.84;25.75;44986.22;4989727;28;20437;-62
2023/05/13 07:21:20;;;;;;;2.93;2.33;;;;;;;-143.84;26.42;44982.41;4989457;28;20445;-62
2023/05/13 07:23:49;;;;;;;7.70;2.43;;;;;;;-143.84;26.53;44984.31;4989359;28;20527;-62
2023/05/13 07:26:16;;;;;;;5.37;2.30;;;;;;;-143.84;25.63;44986.22;4989476;28;20544;-62
2023/05/13 07:28:43;;;;;;;5.43;2.07;;;;;;;-143.84;26.77;44978.63;4989339;28;20500;-62
2023/05/13 07:31:10;;;;;;;3.47;2.50;;;;;;;-143.84;26.17;44986.22;4989851;28;21169;-62
2023/05/13 07:33:37;;;;;;;7.53;2.40;;;;;;;-143.84;25.90;44988.13;4989627;28;20493;-62
2023/05/13 07:36:05;;;;;;;2.50;2.30;;;;;;;-143.84;25.68;44988.13;4989177;28;20513;-62
2023/05/13 07:38:33;;;;;;;6.67;2.37;;;;;;;-143.84;26.02;44999.56;4986738;28;20447;-62
2023/05/13 07:41:01;;;;;;;5.70;2.57;;;;;;;-143.84;25.73;44991.94;4988515;28;20438;-63
2023/05/13 07:43:28;;;;;;;5.83;2.67;;;;;;;-143.84;25.74;45003.38;4988476;28;20573;-63
2023/05/13 07:45:55;;;;;;;7.03;3.20;;;;;;;-143.84;26.25;44999.56;4988418;28;20461;-62
2023/05/13 07:48:24;;;;;;;4.17;2.10;;;;;;;-143.84;25.97;44993.84;4992792;28;20507;-62
2023/05/13 07:50:51;;;;;;;4.93;2.40;;;;;;;-143.84;26.50;44980.53;4992827;28;20445;-62
2023/05/13 07:53:18;;;;;;;4.13;2.47;;;;;;;-143.84;26.74;45005.28;4992827;28;20496;-62
2023/05/13 07:55:45;;;;;;;2.00;1.90;;;;;;;-143.84;26.28;45009.09;4999171;28;20463;-63
2023/05/13 07:58:14;;;;;;;2.67;2.30;;;;;;;-143.84;26.86;44976.72;5012899;28;20494;-62
2023/05/13 08:00:41;;;;;;;2.67;2.30;;;;;;;-143.84;26.59;44991.94;5013268;28;20432;-63
2023/05/13 08:03:08;;;;;;;4.70;2.47;;;;;;;-143.84;26.70;44990.03;5013513;28;20848;-64
2023/05/13 08:05:35;;;;;;;7.10;2.60;;;;;;;-143.84;26.63;44995.75;5013068;28;20476;-68
2023/05/13 08:08:03;;;;;;;3.40;2.40;;;;;;;-143.84;27.51;44999.56;5012864;28;20440;-65
2023/05/13 08:10:43;;;;;;;2.47;2.27;;;;;;;-143.84;27.05;44988.13;5106728;27;21085;-63
2023/05/13 08:13:10;;;;;;;4.03;2.67;;;;;;;-143.84;26.85;44972.91;5106646;28;20432;-62
2023/05/13 08:15:38;;;;;;;4.70;2.10;;;;;;;-143.84;27.09;44993.84;5106219;28;20501;-66
2023/05/13 08:23:06;;;;;;;9.20;2.60;;;;;;;-143.84;26.31;44965.28;5107135;27;20545;-63
2023/05/13 08:25:33;;;;;;;4.80;2.17;;;;;;;-143.84;27.48;44984.31;5106604;28;20512;-57
2023/05/13 08:28:49;;;;;;;13.18;2.50;;;;;;;-143.84;27.25;44995.75;5085288;28;20453;-56
2023/05/13 08:31:17;;;;;;;6.97;2.73;;;;;;;-143.84;26.63;45005.28;5085999;28;20310;-57
2023/05/13 08:33:46;;;;;;;6.53;2.20;;;;;;;-143.84;26.42;44976.72;5085760;28;20458;-57
2023/05/13 08:36:14;;;;;;;2.60;2.00;;;;;;;-143.84;26.65;44991.94;5086562;28;20441;-56
2023/05/13 08:38:42;;;;;;;2.93;1.80;;;;;;;-143.84;26.20;44976.72;5086219;28;20425;-56
2023/05/13 08:41:11;;;;;;;23.57;3.30;;;;;;;-143.84;26.94;44976.72;5086452;28;20443;-59
2023/05/13 08:43:39;;;;;;;2.20;2.03;;;;;;;-143.84;26.65;45009.09;5086367;28;20451;-60
2023/05/13 08:46:11;;;;;;;2.50;2.20;;;;;;;-143.84;26.20;45005.28;5086023;28;20434;-60
2023/05/13 08:48:39;;;;;;;3.27;2.50;;;;;;;-143.84;27.03;44984.31;5085848;28;20483;-60
2023/05/13 08:51:06;;;;;;;2.40;2.07;;;;;;;-143.84;27.43;44997.66;5085769;28;20442;-60
2023/05/13 08:53:35;;;;;;;2.40;2.17;;;;;;;-143.84;27.15;45014.78;5085981;28;20872;-60
2023/05/13 08:56:02;;;;;;;6.80;2.40;;;;;;;-143.84;26.55;44986.22;5085540;28;20528;-60
2023/05/13 08:58:29;;;;;;;5.77;2.27;;;;;;;-143.84;26.79;44984.31;5085900;28;20499;-60
2023/05/13 09:00:57;;;;;;;4.70;1.90;;;;;;;-143.84;26.91;45003.38;5085612;28;20441;-60
2023/05/13 09:03:28;;;;;;;3.30;2.97;;;;;;;-143.84;26.91;44990.03;5085687;28;20461;-61
2023/05/13 09:05:55;;;;;;;2.20;2.00;;;;;;;-143.84;27.11;44982.41;5085610;28;20455;-60
2023/05/13 09:08:22;;;;;;;4.57;2.30;;;;;;;-143.84;27.54;44988.13;5085210;28;21079;-60
2023/05/13 09:10:50;;;;;;;5.73;2.27;;;;;;;-143.84;27.68;45005.28;5085414;28;20519;-60
2023/05/13 09:13:18;;;;;;;2.37;2.27;;;;;;;-143.84;27.76;45007.19;5085931;28;20876;-60
2023/05/13 09:15:45;;;;;;;7.23;2.20;;;;;;;-143.84;29.00;45010.97;5085726;28;21039;-60
2023/05/13 09:18:12;;;;;;;5.57;2.20;;;;;;;-143.84;27.62;44993.84;5085461;28;20426;-60
2023/05/13 09:20:41;;;;;;;4.57;2.53;;;;;;;-143.84;27.80;45001.47;5084802;28;21053;-60
2023/05/13 09:23:10;;;;;;;2.27;2.07;;;;;;;-143.84;27.26;44978.63;5084729;28;20442;-60
2023/05/13 09:25:39;;;;;;;4.13;2.20;;;;;;;-143.84;27.45;44971.00;5084895;28;20442;-60
2023/05/13 09:28:07;;;;;;;7.73;2.27;;;;;;;-143.84;27.54;45014.78;5085129;28;20550;-59
2023/05/13 09:30:37;;;;;;;4.73;1.93;;;;;;;-143.84;28.07;44997.66;5085298;28;20438;-60
2023/05/13 09:33:07;;;;;;;4.50;2.83;;;;;;;-143.84;27.95;44995.75;5085196;28;20874;-60
2023/05/13 09:35:35;;;;;;;20.97;7.27;;;;;;;-143.84;28.37;45010.97;5084860;28;20437;-60
2023/05/13 09:38:13;;;;;;;4.20;2.70;;;;;;;-143.84;28.21;45024.31;5083562;28;20449;-60
2023/05/13 09:40:40;;;;;;;3.50;3.03;;;;;;;-143.84;27.97;45009.09;5071767;28;20445;-60
2023/05/13 09:43:08;;;;;;;7.90;2.93;;;;;;;-143.84;29.14;44990.03;5071769;28;20469;-59
2023/05/13 09:45:36;;;;;;;3.93;2.30;;;;;;;-143.84;28.94;45003.38;5071771;28;20471;-60
2023/05/13 09:48:03;;;;;;;5.70;3.07;;;;;;;-143.84;28.50;45001.47;5071402;28;20481;-59
2023/05/13 09:50:32;;;;;;;2.40;2.20;;;;;;;-143.84;29.27;44999.56;5071266;28;20495;-60
2023/05/13 09:53:11;;;;;;;5.20;3.57;;;;;;;-143.84;29.99;45010.97;5071331;28;20795;-60
2023/05/13 09:55:39;;;;;;;9.30;2.80;;;;;;;-143.84;29.99;45026.22;5071354;28;20457;-60
2023/05/13 09:58:11;;;;;;;3.90;2.63;;;;;;;-143.84;30.26;45007.19;5070380;28;20445;-60
2023/05/13 10:00:40;;;;;;;8.40;2.90;;;;;;;-143.84;30.28;44999.56;5070676;28;20441;-59
2023/05/13 10:03:07;;;;;;;3.00;2.70;;;;;;;-143.84;30.03;44990.03;5070679;28;20495;-59
2023/05/13 10:05:35;;;;;;;7.97;2.77;;;;;;;-143.84;30.03;45014.78;5070706;28;20494;-59
2023/05/13 10:08:03;;;;;;;21.57;3.23;;;;;;;-143.84;30.29;45009.09;5070070;28;20531;-60
2023/05/13 10:10:34;;;;;;;2.70;2.40;;;;;;;-143.84;31.01;45003.38;5071038;28;20464;-60
2023/05/13 10:13:06;;;;;;;6.10;2.20;;;;;;;-143.84;30.84;45016.69;5071144;28;20445;-60
2023/05/13 10:15:34;;;;;;;4.10;2.80;;;;;;;-143.84;30.90;45056.69;5054329;28;20973;-59
2023/05/13 10:18:02;;;;;;;5.13;3.10;;;;;;;-143.84;30.47;45009.09;5050775;28;20487;-60
2023/05/13 10:20:29;;;;;;;5.47;3.87;;;;;;;-143.84;31.37;45030.03;5050914;28;20439;-60
2023/05/13 10:22:58;;;;;;;5.63;3.30;;;;;;;-143.84;31.12;45026.22;5050627;28;20437;-60
2023/05/13 10:25:26;;;;;;;5.00;3.10;;;;;;;-143.84;30.36;44984.31;5050866;28;20454;-60
2023/05/13 10:27:57;;;;;;;5.77;2.80;;;;;;;-143.84;30.07;45026.22;5050234;28;20493;-60
2023/05/13 10:30:26;;;;;;;11.73;3.90;;;;;;;-143.84;31.25;45003.38;5049751;28;20446;-59
2023/05/13 10:32:54;;;;;;;3.60;3.30;;;;;;;-143.84;31.26;45049.06;5049726;28;20807;-60
2023/05/13 10:35:24;;;;;;;8.43;2.37;;;;;;;-143.84;30.35;44999.56;5050495;28;20437;-60
2023/05/13 10:38:00;;;;;;;4.43;3.00;;;;;;;-143.84;30.20;44997.66;5050505;28;20447;-60
2023/05/13 10:41:04;;;;;;;5.63;2.50;;;;;;;-143.84;31.15;45026.22;5050360;28;20442;-59
2023/05/13 10:43:35;;;;;;;3.97;2.53;;;;;;;-143.84;30.26;45024.31;5050350;28;20446;-60
2023/05/13 10:46:05;;;;;;;4.40;2.10;;;;;;;-143.84;30.90;45012.88;5050433;28;20453;-60
2023/05/13 10:48:40;;;;;;;8.83;3.70;;;;;;;-143.84;30.83;44997.66;5050270;28;20489;-60
2023/05/13 10:51:07;;;;;;;5.33;3.10;;;;;;;-143.84;31.69;45020.50;5054304;28;20449;-60
2023/05/13 10:53:38;;;;;;;4.20;2.57;;;;;;;-143.84;30.21;45003.38;5070665;28;20462;-60
2023/05/13 10:56:06;;;;;;;2.77;2.57;;;;;;;-143.84;30.13;44993.84;5067546;28;20493;-60
2023/05/13 10:58:37;;;;;;;8.30;2.90;;;;;;;-143.84;30.77;44995.75;5069968;28;20450;-60
2023/05/13 11:01:15;;;;;;;5.07;2.30;;;;;;;-143.84;30.30;44976.72;5069840;28;20528;-60
2023/05/13 11:03:50;;;;;;;4.37;2.67;;;;;;;-143.84;31.04;45005.28;5069966;28;20441;-60
2023/05/13 11:06:19;;;;;;;4.93;2.57;;;;;;;-143.84;31.70;45035.75;5069809;28;20941;-60
2023/05/13 11:08:47;;;;;;;6.67;2.70;;;;;;;-143.84;32.38;45014.78;5070085;28;20878;-60
2023/05/13 11:11:33;;;;;;;2.77;2.57;;;;;;;-143.84;32.43;45026.22;5069952;28;20990;-60
2023/05/13 11:14:14;;;;;;;3.10;2.63;;;;;;;-143.84;32.34;45047.16;5069625;28;20509;-60
2023/05/13 11:16:47;;;;;;;6.57;2.20;;;;;;;-143.84;32.03;45012.88;5069622;28;20463;-60
2023/05/13 11:19:20;;;;;;;4.80;3.20;;;;;;;-143.84;32.41;45045.25;5069693;28;20454;-60
2023/05/13 11:21:51;;;;;;;4.23;2.73;;;;;;;-143.84;32.80;45010.97;5069527;28;20437;-60
2023/05/13 11:24:20;;;;;;;4.10;3.00;;;;;;;-143.84;32.71;45007.19;5069501;28;20448;-60
2023/05/13 11:26:48;;;;;;;7.20;3.00;;;;;;;-143.84;33.30;45026.22;5069414;28;20504;-60
2023/05/13 11:29:28;;;;;;;3.20;2.40;;;;;;;-143.84;34.38;45018.59;5069205;28;20479;-60